Time;durP1;ratioP1;P1;durP2;ratioP2;P2;SDS_P1;SDS_P2;PMS_P1;PMS_P2;Temp;Humidity;BMP_temperature;BMP_pressure;BME280_temperature;BME280_humidity;BME280_pressure;Samples;Min_cycle;Max_cycle;Signal;HPM_P1;HPM_P2
2021/12/17 00:00:45;;;;;;;28.75;20.27;;;5.60;99.90;;;;;;4995124;28;20269;-70
2021/12/17 00:03:21;;;;;;;34.00;22.35;;;5.60;99.90;;;;;;4994932;28;20275;-70
2021/12/17 00:08:20;;;;;;;30.92;22.52;;;5.60;99.90;;;;;;4995146;28;20199;-71
2021/12/17 00:10:49;;;;;;;29.83;21.73;;;5.60;99.90;;;;;;4977428;28;20203;-70
2021/12/17 00:13:17;;;;;;;29.27;20.77;;;5.60;99.90;;;;;;4995223;28;20260;-70
2021/12/17 00:15:45;;;;;;;29.40;20.67;;;5.60;99.90;;;;;;4995115;28;20232;-70
2021/12/17 00:18:20;;;;;;;28.23;20.20;;;5.60;99.90;;;;;;4994634;28;20209;-70
2021/12/17 00:48:22;;;;;;;31.73;20.95;;;5.50;99.90;;;;;;4942848;28;20217;-70
2021/12/17 00:49:17;;;;;;;25.73;19.83;;;5.60;99.90;;;;;;4995872;28;20222;-69
2021/12/17 00:54:21;;;;;;;28.58;20.65;;;5.60;99.90;;;;;;4996150;28;20201;-69
2021/12/17 00:56:51;;;;;;;26.92;20.35;;;5.70;99.90;;;;;;4999384;28;20647;-70
2021/12/17 00:59:18;;;;;;;31.02;21.40;;;5.60;99.90;;;;;;4999482;28;20191;-69
2021/12/17 01:01:47;;;;;;;33.63;21.00;;;5.50;99.90;;;;;;4999028;28;20684;-69
2021/12/17 01:04:14;;;;;;;34.53;20.73;;;5.50;99.90;;;;;;4998627;28;20209;-70
2021/12/17 01:06:41;;;;;;;30.20;21.75;;;5.60;99.90;;;;;;4998607;28;20218;-70
2021/12/17 01:09:10;;;;;;;32.22;21.63;;;5.60;99.90;;;;;;4997820;28;20214;-69
2021/12/17 01:11:37;;;;;;;34.53;20.48;;;5.60;99.90;;;;;;4998686;28;20233;-69
2021/12/17 01:14:05;;;;;;;29.75;20.17;;;5.60;99.90;;;;;;4997900;28;20211;-69
2021/12/17 01:16:31;;;;;;;27.25;19.00;;;5.60;99.90;;;;;;4998216;28;20199;-70
2021/12/17 01:40:52;;;;;;;25.20;20.13;;;5.50;99.90;;;;;;4997706;28;20206;-69
2021/12/17 01:43:10;;;;;;;30.10;22.25;;;5.60;99.90;;;;;;4997696;28;20214;-69
2021/12/17 01:45:39;;;;;;;31.98;20.75;;;5.60;99.90;;;;;;4997088;28;20206;-70
2021/12/17 01:48:10;;;;;;;33.20;21.00;;;5.60;99.90;;;;;;4996886;28;20210;-69
2021/12/17 01:56:30;;;;;;;35.90;21.23;;;5.60;99.90;;;;;;4997674;28;20206;-69
2021/12/17 02:01:43;;;;;;;34.92;21.63;;;5.60;99.90;;;;;;4997286;28;20194;-70
2021/12/17 02:04:10;;;;;;;32.85;21.35;;;5.60;99.90;;;;;;4979962;28;20203;-69
2021/12/17 02:06:37;;;;;;;25.75;20.20;;;5.60;99.90;;;;;;4995454;28;20241;-69
2021/12/17 02:21:13;;;;;;;30.30;19.27;;;5.60;99.90;;;;;;4997010;28;20187;-70
2021/12/17 02:31:55;;;;;;;25.23;19.85;;;5.70;99.90;;;;;;4996700;28;20182;-71
2021/12/17 02:37:01;;;;;;;32.00;19.58;;;5.70;99.90;;;;;;4996458;28;20703;-70
2021/12/17 02:47:37;;;;;;;25.55;18.35;;;5.70;99.90;;;;;;4996752;28;20653;-69
2021/12/17 02:50:05;;;;;;;25.75;19.52;;;5.80;99.90;;;;;;4996023;28;20584;-70
2021/12/17 02:52:35;;;;;;;25.70;18.42;;;5.80;99.90;;;;;;4978741;28;20657;-70
2021/12/17 02:55:02;;;;;;;24.70;18.80;;;5.80;99.90;;;;;;4996254;28;20658;-69
2021/12/17 02:57:29;;;;;;;22.58;17.67;;;5.80;99.90;;;;;;4996552;28;20206;-69
2021/12/17 02:59:56;;;;;;;26.70;18.52;;;5.70;99.90;;;;;;4995876;28;20681;-69
2021/12/17 03:02:26;;;;;;;28.33;18.88;;;5.70;99.90;;;;;;4996023;28;20214;-69
2021/12/17 03:04:53;;;;;;;31.65;19.23;;;5.80;99.90;;;;;;4979804;28;20191;-68
2021/12/17 03:07:20;;;;;;;28.23;21.05;;;5.80;99.90;;;;;;4996505;28;20229;-69
2021/12/17 03:12:25;;;;;;;30.08;19.90;;;5.80;99.90;;;;;;4996041;28;20225;-69
2021/12/17 03:15:00;;;;;;;24.73;17.17;;;5.80;99.90;;;;;;4996675;28;20212;-69
2021/12/17 03:18:02;;;;;;;28.10;18.38;;;5.90;99.90;;;;;;4995514;28;20202;-69
2021/12/17 03:25:50;;;;;;;29.55;18.77;;;5.90;99.90;;;;;;4995487;28;20190;-69
2021/12/17 03:28:17;;;;;;;25.83;18.88;;;5.90;99.90;;;;;;4994305;28;20218;-69
2021/12/17 03:30:45;;;;;;;25.27;18.08;;;6.00;99.90;;;;;;4995200;28;20230;-69
2021/12/17 03:33:12;;;;;;;29.48;18.98;;;6.00;99.90;;;;;;4995130;28;20210;-70
2021/12/17 03:35:39;;;;;;;23.58;18.00;;;6.10;99.90;;;;;;4995270;28;20198;-69
2021/12/17 03:38:06;;;;;;;25.13;17.27;;;6.10;99.90;;;;;;4995216;28;20542;-70
2021/12/17 03:40:33;;;;;;;26.65;16.73;;;6.10;99.90;;;;;;4995340;28;20203;-70
2021/12/17 03:43:03;;;;;;;29.05;18.02;;;6.10;99.90;;;;;;4994884;28;20210;-70
2021/12/17 03:45:30;;;;;;;22.65;17.10;;;6.10;99.90;;;;;;4995623;28;20221;-70
2021/12/17 03:47:57;;;;;;;25.02;17.83;;;6.00;99.90;;;;;;4995478;28;20253;-70
2021/12/17 03:50:24;;;;;;;25.15;16.85;;;6.10;99.90;;;;;;4995525;28;20261;-70
2021/12/17 03:52:50;;;;;;;27.77;17.50;;;6.10;99.90;;;;;;4996251;28;20207;-70
2021/12/17 03:55:16;;;;;;;22.88;17.38;;;6.10;99.90;;;;;;4995393;28;20206;-69
2021/12/17 03:57:44;;;;;;;25.88;17.60;;;6.20;99.90;;;;;;4995807;28;20222;-69
2021/12/17 04:00:12;;;;;;;36.33;17.88;;;6.20;99.90;;;;;;4995451;28;20209;-69
2021/12/17 04:02:39;;;;;;;21.30;16.88;;;6.30;99.90;;;;;;4995030;28;20206;-69
2021/12/17 04:05:05;;;;;;;23.67;17.98;;;6.20;99.90;;;;;;4995117;28;20249;-70
2021/12/17 04:07:32;;;;;;;23.00;18.02;;;6.20;99.90;;;;;;4977692;28;20285;-69
2021/12/17 04:09:59;;;;;;;27.10;17.83;;;6.20;99.90;;;;;;4995274;28;20257;-70
2021/12/17 04:12:40;;;;;;;20.73;16.58;;;6.20;99.90;;;;;;4994276;28;20198;-69
2021/12/17 04:15:07;;;;;;;24.25;16.95;;;6.30;99.90;;;;;;4977049;28;20199;-69
2021/12/17 04:17:41;;;;;;;26.58;17.40;;;6.30;99.90;;;;;;4994654;28;20281;-69
2021/12/17 04:20:08;;;;;;;23.90;16.73;;;6.40;99.90;;;;;;4994085;28;20198;-69
2021/12/17 04:22:35;;;;;;;25.45;17.00;;;6.40;99.90;;;;;;4994282;28;20198;-69
2021/12/17 04:25:02;;;;;;;21.65;16.92;;;6.40;99.90;;;;;;4994311;28;20210;-70
2021/12/17 04:27:29;;;;;;;22.00;16.13;;;6.40;99.90;;;;;;4977239;28;20206;-69
2021/12/17 04:29:57;;;;;;;20.92;16.50;;;6.40;99.90;;;;;;4993354;28;20588;-69
2021/12/17 04:32:23;;;;;;;21.58;17.02;;;6.40;99.90;;;;;;4993838;28;20568;-70
2021/12/17 04:34:50;;;;;;;21.20;16.15;;;6.40;99.90;;;;;;4993803;28;20202;-69
2021/12/17 04:37:16;;;;;;;21.90;15.45;;;6.50;99.90;;;;;;4994422;28;20199;-69
2021/12/17 04:39:43;;;;;;;23.40;16.20;;;6.50;99.90;;;;;;4994011;28;20625;-69
2021/12/17 04:42:19;;;;;;;23.65;16.98;;;6.50;99.90;;;;;;4994727;28;20199;-69
2021/12/17 04:44:53;;;;;;;21.70;15.55;;;6.40;99.90;;;;;;4978793;28;20202;-69
2021/12/17 04:58:00;;;;;;;24.85;17.95;;;6.40;99.90;;;;;;4994563;28;20187;-69
2021/12/17 05:00:29;;;;;;;35.20;17.67;;;6.40;99.90;;;;;;4976998;28;20252;-70
2021/12/17 05:02:58;;;;;;;23.10;17.65;;;6.40;99.90;;;;;;4994772;28;20616;-69
2021/12/17 05:05:31;;;;;;;26.15;17.88;;;6.40;99.90;;;;;;4994711;28;20211;-69
2021/12/17 05:08:03;;;;;;;29.50;18.77;;;6.40;99.90;;;;;;4994089;28;20588;-69
2021/12/17 05:18:35;;;;;;;23.33;18.00;;;6.40;99.90;;;;;;4979781;28;20193;-69
2021/12/17 05:21:05;;;;;;;22.17;16.67;;;6.50;99.90;;;;;;4994567;28;20238;-71
2021/12/17 05:23:37;;;;;;;23.73;16.92;;;6.50;99.90;;;;;;4994167;28;20225;-69
2021/12/17 05:26:10;;;;;;;29.15;19.40;;;6.50;99.90;;;;;;4993953;28;20215;-73
2021/12/17 05:28:37;;;;;;;26.63;17.90;;;6.50;99.90;;;;;;4993959;28;20186;-70
2021/12/17 05:31:04;;;;;;;21.63;17.05;;;6.50;99.90;;;;;;4994059;28;20237;-70
2021/12/17 05:33:31;;;;;;;33.63;17.58;;;6.50;99.90;;;;;;4993351;28;20606;-70
2021/12/17 05:35:57;;;;;;;24.50;17.27;;;6.50;99.90;;;;;;4994107;28;20199;-69
2021/12/17 05:38:27;;;;;;;22.17;17.63;;;6.50;99.90;;;;;;4993204;28;20712;-69
2021/12/17 05:40:55;;;;;;;31.52;17.40;;;6.50;99.90;;;;;;4995699;28;20213;-70
2021/12/17 05:43:21;;;;;;;23.30;16.88;;;6.40;99.90;;;;;;4997888;28;20211;-70
2021/12/17 05:48:21;;;;;;;22.23;16.65;;;6.40;99.90;;;;;;4997465;28;20551;-69
2021/12/17 05:50:50;;;;;;;31.27;18.48;;;6.40;99.90;;;;;;4997069;28;20686;-69
2021/12/17 05:53:16;;;;;;;32.53;19.52;;;6.40;99.90;;;;;;4997649;28;20780;-69
2021/12/17 05:55:43;;;;;;;27.42;17.58;;;6.40;99.90;;;;;;4998089;28;20207;-68
2021/12/17 05:58:10;;;;;;;22.85;17.42;;;6.40;99.90;;;;;;4997535;28;20202;-68
2021/12/17 06:00:39;;;;;;;30.92;20.50;;;6.40;99.90;;;;;;4980476;28;20609;-69
2021/12/17 06:03:06;;;;;;;28.20;17.92;;;6.40;99.90;;;;;;4996768;28;20577;-68
2021/12/17 06:05:33;;;;;;;29.05;19.40;;;6.40;99.90;;;;;;4996473;28;20217;-68
2021/12/17 06:08:00;;;;;;;29.30;19.13;;;6.40;99.90;;;;;;4996659;28;20203;-69
2021/12/17 06:10:27;;;;;;;32.13;18.95;;;6.40;99.90;;;;;;4979177;28;20222;-69
2021/12/17 06:12:53;;;;;;;26.70;17.17;;;6.40;99.90;;;;;;4996587;28;20206;-68
2021/12/17 06:15:21;;;;;;;27.00;18.23;;;6.40;99.90;;;;;;4980030;28;20203;-69
2021/12/17 06:17:48;;;;;;;24.95;17.10;;;6.40;99.90;;;;;;4997668;28;20199;-69
2021/12/17 06:20:16;;;;;;;32.28;20.52;;;6.40;99.90;;;;;;4996908;28;20662;-69
2021/12/17 06:22:43;;;;;;;26.30;18.80;;;6.40;99.90;;;;;;4997099;28;20206;-69
2021/12/17 06:25:10;;;;;;;29.42;19.10;;;6.40;99.90;;;;;;4997477;28;20206;-69
2021/12/17 06:27:38;;;;;;;29.08;20.27;;;6.40;99.90;;;;;;4996632;28;20207;-69
2021/12/17 06:30:07;;;;;;;26.33;19.30;;;6.40;99.90;;;;;;4996931;28;20728;-69
2021/12/17 06:32:34;;;;;;;25.70;19.60;;;6.40;99.90;;;;;;4997132;28;20203;-69
2021/12/17 06:35:00;;;;;;;28.17;18.65;;;6.40;99.90;;;;;;4997007;28;20568;-70
2021/12/17 06:37:27;;;;;;;29.25;19.35;;;6.50;99.90;;;;;;4997418;28;20209;-70
2021/12/17 06:39:53;;;;;;;23.80;17.50;;;6.50;99.90;;;;;;4996244;28;20570;-70
2021/12/17 06:42:21;;;;;;;27.80;19.10;;;6.50;99.90;;;;;;4996658;28;20203;-70
2021/12/17 06:44:48;;;;;;;27.50;16.92;;;6.50;99.90;;;;;;4996325;28;20570;-70
2021/12/17 06:49:56;;;;;;;30.65;19.77;;;6.50;99.90;;;;;;4995704;28;20198;-70
2021/12/17 07:00:23;;;;;;;23.27;17.50;;;6.60;99.90;;;;;;4995664;28;20600;-70
2021/12/17 07:11:18;;;;;;;21.35;16.55;;;6.50;99.90;;;;;;4995888;28;20218;-70
2021/12/17 07:21:57;;;;;;;22.25;16.52;;;6.50;99.90;;;;;;4995542;28;20737;-69
2021/12/17 07:32:47;;;;;;;25.95;16.92;;;6.60;99.90;;;;;;4995549;28;20209;-70
2021/12/17 07:40:34;;;;;;;23.15;16.67;;;6.60;99.90;;;;;;4994681;28;20195;-70
2021/12/17 07:43:10;;;;;;;25.50;18.08;;;6.60;99.90;;;;;;4994998;28;20207;-70
2021/12/17 07:45:37;;;;;;;26.23;16.58;;;6.50;99.90;;;;;;4994664;28;20214;-70
2021/12/17 07:48:04;;;;;;;25.48;18.02;;;6.60;99.90;;;;;;4994985;28;20627;-70
2021/12/17 07:50:30;;;;;;;20.92;16.90;;;6.60;99.90;;;;;;4994637;28;20615;-70
2021/12/17 07:52:57;;;;;;;22.80;15.98;;;6.60;99.90;;;;;;4994520;28;20210;-70
2021/12/17 07:55:23;;;;;;;25.13;17.98;;;6.60;99.90;;;;;;4994453;28;20194;-70
2021/12/17 07:57:49;;;;;;;29.30;17.13;;;6.60;99.90;;;;;;4994198;28;20622;-70
2021/12/17 08:00:16;;;;;;;28.23;17.98;;;6.60;99.90;;;;;;4995856;28;20213;-70
2021/12/17 08:02:43;;;;;;;26.73;16.88;;;6.60;99.90;;;;;;4994479;28;20202;-70
2021/12/17 08:05:09;;;;;;;23.35;17.08;;;6.60;99.90;;;;;;4994140;28;20256;-69
2021/12/17 08:07:35;;;;;;;26.42;16.92;;;6.60;99.90;;;;;;4994329;28;20338;-69
2021/12/17 08:10:02;;;;;;;26.13;18.83;;;6.60;99.90;;;;;;4994804;28;20212;-69
2021/12/17 08:12:29;;;;;;;26.23;18.23;;;6.70;99.90;;;;;;4994425;28;20214;-70
2021/12/17 08:14:56;;;;;;;24.73;17.85;;;6.70;99.90;;;;;;4994079;28;20666;-69
2021/12/17 08:24:06;;;;;;;26.92;18.45;;;6.80;99.90;;;;;;4994115;28;20190;-71
2021/12/17 08:25:51;;;;;;;29.35;20.05;;;6.80;99.90;;;;;;4972554;28;20548;-72
2021/12/17 08:28:18;;;;;;;29.65;19.20;;;6.80;99.90;;;;;;4976989;28;20210;-73
2021/12/17 08:30:45;;;;;;;22.90;18.15;;;6.80;99.90;;;;;;4993118;28;20225;-72
2021/12/17 08:33:18;;;;;;;26.95;19.75;;;6.80;99.90;;;;;;4976509;28;20609;-73
2021/12/17 08:35:44;;;;;;;26.67;19.15;;;6.90;99.90;;;;;;4993697;28;20202;-72
2021/12/17 08:38:11;;;;;;;22.40;17.50;;;6.90;99.90;;;;;;4994065;28;20210;-70
2021/12/17 08:40:38;;;;;;;30.63;18.00;;;7.00;99.90;;;;;;4993714;28;20249;-70
2021/12/17 08:43:05;;;;;;;44.45;20.17;;;7.10;99.90;;;;;;4994320;28;20214;-70
2021/12/17 08:45:31;;;;;;;22.05;17.20;;;7.10;99.90;;;;;;4975974;28;20222;-70
2021/12/17 08:47:58;;;;;;;22.05;17.80;;;7.20;99.90;;;;;;4993580;28;20276;-70
2021/12/17 08:50:24;;;;;;;23.58;16.25;;;7.30;99.90;;;;;;4992610;28;20210;-70
2021/12/17 08:52:51;;;;;;;23.05;16.27;;;7.30;99.90;;;;;;4993507;28;20658;-71
2021/12/17 08:55:17;;;;;;;23.83;16.63;;;7.40;99.90;;;;;;4993434;28;20195;-71
2021/12/17 08:57:43;;;;;;;19.92;15.15;;;7.50;99.90;;;;;;4994084;28;20195;-71
2021/12/17 09:00:12;;;;;;;20.38;15.52;;;7.60;99.90;;;;;;4993672;28;20685;-71
2021/12/17 09:02:41;;;;;;;18.98;16.73;;;7.70;99.90;;;;;;4993657;28;20203;-71
2021/12/17 09:05:08;;;;;;;22.98;15.77;;;7.80;99.90;;;;;;4993653;28;20207;-71
2021/12/17 09:07:35;;;;;;;22.25;17.33;;;7.80;99.90;;;;;;4994273;28;20215;-71
2021/12/17 09:10:05;;;;;;;20.30;14.68;;;7.90;99.90;;;;;;4992829;28;20559;-70
2021/12/17 09:12:31;;;;;;;16.15;12.85;;;7.80;99.90;;;;;;4994093;28;20226;-72
2021/12/17 09:14:57;;;;;;;18.25;12.55;;;7.80;99.90;;;;;;4995776;28;20550;-71
2021/12/17 09:17:24;;;;;;;21.25;13.27;;;7.80;99.90;;;;;;4998299;28;20203;-72
2021/12/17 09:19:51;;;;;;;22.00;15.63;;;7.80;99.90;;;;;;4997100;28;20206;-72
2021/12/17 09:22:17;;;;;;;30.75;16.13;;;7.90;99.90;;;;;;4998006;28;20203;-72
2021/12/17 09:24:44;;;;;;;22.90;15.30;;;7.90;99.90;;;;;;4997535;28;20298;-70
2021/12/17 09:27:10;;;;;;;16.05;13.70;;;7.90;99.90;;;;;;4997758;28;20207;-72
2021/12/17 09:29:36;;;;;;;21.83;13.77;;;7.80;99.90;;;;;;4996732;28;20601;-71
2021/12/17 09:32:03;;;;;;;16.33;12.30;;;7.80;99.90;;;;;;4997328;28;20219;-71
2021/12/17 09:34:29;;;;;;;16.73;13.50;;;7.80;99.90;;;;;;4997088;28;20202;-71
2021/12/17 09:36:56;;;;;;;15.32;11.90;;;7.70;99.90;;;;;;4997265;28;20209;-72
2021/12/17 09:39:23;;;;;;;15.23;12.55;;;7.80;99.90;;;;;;4997324;28;20548;-71
2021/12/17 09:41:50;;;;;;;18.17;12.30;;;7.90;99.90;;;;;;4978713;28;20563;-71
2021/12/17 09:44:18;;;;;;;14.43;12.75;;;7.80;99.90;;;;;;4997116;28;20194;-70
2021/12/17 09:46:46;;;;;;;18.58;12.93;;;8.00;99.90;;;;;;4995991;28;20202;-71
2021/12/17 09:49:15;;;;;;;19.50;12.77;;;8.00;99.90;;;;;;4996002;28;20199;-70
2021/12/17 09:51:42;;;;;;;17.00;13.23;;;8.10;99.90;;;;;;4979458;28;20218;-70
2021/12/17 09:54:10;;;;;;;15.98;13.10;;;8.10;99.90;;;;;;4996636;28;20202;-71
2021/12/17 09:56:37;;;;;;;20.95;12.70;;;8.10;99.90;;;;;;4996859;28;20732;-70
2021/12/17 09:59:04;;;;;;;15.60;12.15;;;8.10;99.90;;;;;;4996779;28;20269;-70
2021/12/17 10:01:31;;;;;;;16.90;10.93;;;8.20;99.90;;;;;;4996765;28;20198;-70
2021/12/17 10:04:20;;;;;;;12.65;10.52;;;8.20;99.90;;;;;;4995974;28;20206;-71
2021/12/17 10:06:49;;;;;;;14.82;11.30;;;8.10;99.90;;;;;;4995976;28;20230;-73
2021/12/17 10:09:16;;;;;;;14.82;12.23;;;8.20;99.90;;;;;;4995996;28;20214;-71
2021/12/17 10:12:06;;;;;;;15.18;12.45;;;8.30;99.90;;;;;;4996058;28;20564;-70
2021/12/17 10:14:32;;;;;;;15.82;12.70;;;8.30;99.90;;;;;;4996509;28;20262;-70
2021/12/17 10:17:11;;;;;;;15.75;9.95;;;8.30;99.90;;;;;;4997561;28;20202;-70
2021/12/17 10:19:46;;;;;;;13.73;11.48;;;8.40;99.90;;;;;;4997564;28;20238;-72
2021/12/17 10:22:15;;;;;;;14.63;12.27;;;8.40;99.90;;;;;;4996854;28;20234;-70
2021/12/17 10:24:57;;;;;;;17.25;11.80;;;8.40;99.90;;;;;;4996684;28;20658;-70
2021/12/17 10:27:27;;;;;;;15.38;11.95;;;8.50;99.90;;;;;;4995901;28;20252;-71
2021/12/17 10:29:54;;;;;;;13.70;10.90;;;8.50;99.90;;;;;;4995899;28;20581;-70
2021/12/17 10:32:24;;;;;;;14.77;11.15;;;8.50;99.90;;;;;;4978472;28;20283;-70
2021/12/17 10:35:12;;;;;;;14.35;10.23;;;8.60;99.90;;;;;;4995895;28;20306;-70
2021/12/17 10:37:45;;;;;;;11.95;10.23;;;8.70;99.90;;;;;;4996240;28;20700;-71
2021/12/17 10:40:27;;;;;;;10.15;8.70;;;8.80;99.90;;;;;;4995409;28;20207;-70
2021/12/17 10:43:07;;;;;;;11.13;8.20;;;9.10;99.90;;;;;;4994965;28;20680;-71
2021/12/17 10:45:42;;;;;;;11.85;8.50;;;9.40;99.90;;;;;;4995517;28;20213;-71
2021/12/17 10:48:24;;;;;;;8.52;7.63;;;9.70;99.90;;;;;;4995531;28;20638;-71
2021/12/17 10:51:01;;;;;;;8.85;7.15;;;9.80;99.90;;;;;;4995023;28;20202;-73
2021/12/17 10:53:28;;;;;;;8.52;7.65;;;9.80;99.90;;;;;;4995610;28;20264;-72
2021/12/17 10:55:56;;;;;;;8.93;8.02;;;10.00;99.90;;;;;;4996061;28;20618;-71
2021/12/17 10:58:23;;;;;;;10.40;8.88;;;10.30;99.90;;;;;;4995413;28;20729;-71
2021/12/17 11:01:06;;;;;;;14.90;8.25;;;10.30;99.90;;;;;;4995883;28;20206;-71
2021/12/17 11:03:43;;;;;;;8.70;7.90;;;10.40;99.90;;;;;;4995840;28;20190;-71
2021/12/17 11:06:10;;;;;;;10.65;6.90;;;10.90;99.90;;;;;;4995273;28;20231;-71
2021/12/17 11:08:39;;;;;;;8.55;7.75;;;10.70;99.90;;;;;;4994928;28;20206;-71
2021/12/17 11:11:11;;;;;;;8.00;7.23;;;10.80;99.90;;;;;;4994696;28;20269;-71
2021/12/17 11:13:57;;;;;;;7.73;6.53;;;11.20;99.90;;;;;;4977828;28;20622;-71
2021/12/17 11:16:27;;;;;;;7.07;6.37;;;11.00;99.90;;;;;;4994771;28;21147;-72
2021/12/17 11:18:55;;;;;;;7.18;6.47;;;10.70;99.90;;;;;;4995534;28;20587;-71
2021/12/17 11:21:22;;;;;;;6.20;5.70;;;11.00;99.90;;;;;;4996424;28;20231;-72
2021/12/17 11:23:50;;;;;;;6.20;5.70;;;11.00;99.90;;;;;;4995225;28;20588;-71
2021/12/17 11:26:17;;;;;;;8.85;6.20;;;10.80;99.90;;;;;;4994753;28;20210;-71
2021/12/17 11:28:46;;;;;;;6.53;5.83;;;10.70;99.90;;;;;;4994371;28;20206;-71
2021/12/17 11:31:13;;;;;;;5.97;5.47;;;11.00;99.90;;;;;;4978079;28;20657;-71
2021/12/17 11:33:40;;;;;;;6.10;5.60;;;11.10;99.90;;;;;;4977398;28;20931;-71
2021/12/17 11:36:07;;;;;;;6.77;6.07;;;11.40;99.90;;;;;;4994967;28;20223;-72
2021/12/17 11:38:44;;;;;;;5.43;5.00;;;11.60;99.90;;;;;;4994555;28;20627;-71
2021/12/17 11:41:19;;;;;;;4.73;4.30;;;11.80;99.90;;;;;;4995289;28;20585;-72
2021/12/17 11:44:00;;;;;;;4.33;3.93;;;11.60;99.90;;;;;;4994053;28;20596;-71
2021/12/17 11:46:30;;;;;;;4.57;4.17;;;11.20;99.90;;;;;;4993636;28;20600;-70
2021/12/17 11:49:03;;;;;;;4.95;4.20;;;11.20;99.90;;;;;;4994657;28;20727;-70
2021/12/17 11:51:32;;;;;;;4.60;4.27;;;11.40;99.90;;;;;;4976914;28;20222;-70
2021/12/17 11:54:15;;;;;;;5.27;4.23;;;11.70;99.90;;;;;;4994933;28;20636;-71
2021/12/17 11:56:46;;;;;;;5.07;4.57;;;12.10;99.90;;;;;;4994515;28;20656;-70
2021/12/17 11:59:24;;;;;;;10.23;4.53;;;12.10;99.90;;;;;;4994471;28;20656;-72
2021/12/17 12:02:15;;;;;;;4.63;4.27;;;12.30;99.90;;;;;;4994016;28;20642;-70
2021/12/17 12:04:53;;;;;;;4.63;4.27;;;12.30;99.90;;;;;;4994314;28;20589;-70
2021/12/17 12:07:33;;;;;;;5.73;5.23;;;12.50;99.90;;;;;;4993879;28;21025;-71
2021/12/17 12:10:12;;;;;;;4.93;4.37;;;12.60;99.90;;;;;;4994056;28;20582;-70
2021/12/17 12:12:45;;;;;;;8.03;4.40;;;12.30;99.90;;;;;;4993684;28;20665;-70
2021/12/17 12:15:17;;;;;;;4.40;4.00;;;11.80;99.90;;;;;;4994548;28;20622;-68
2021/12/17 12:18:01;;;;;;;8.20;4.30;;;11.80;99.90;;;;;;4993828;28;21206;-70
2021/12/17 12:21:02;;;;;;;4.17;3.80;;;11.50;99.90;;;;;;4994194;28;21005;-68
2021/12/17 12:23:32;;;;;;;4.30;3.80;;;11.40;99.90;;;;;;4954707;28;21006;-70
2021/12/17 12:26:04;;;;;;;6.80;5.90;;;12.10;99.90;;;;;;4993624;28;20724;-69
2021/12/17 12:28:49;;;;;;;8.63;4.57;;;12.50;99.90;;;;;;4994074;28;20621;-71
2021/12/17 12:31:28;;;;;;;5.70;5.20;;;12.90;99.90;;;;;;4992884;28;20647;-69
2021/12/17 12:34:04;;;;;;;11.03;6.63;;;13.50;99.90;;;;;;4994604;28;20613;-70
2021/12/17 12:36:49;;;;;;;6.50;5.60;;;13.70;99.90;;;;;;4994191;28;21236;-70
2021/12/17 12:39:24;;;;;;;8.77;7.97;;;13.60;99.90;;;;;;4993748;28;20622;-70
2021/12/17 12:41:55;;;;;;;9.13;8.33;;;12.70;99.90;;;;;;4994742;28;20607;-70
2021/12/17 12:44:57;;;;;;;13.90;10.50;;;11.30;99.90;;;;;;4994742;28;20625;-70
2021/12/17 12:47:26;;;;;;;12.85;11.13;;;10.70;99.90;;;;;;4914903;29;20707;-70
2021/12/17 12:50:04;;;;;;;15.80;12.13;;;10.20;99.90;;;;;;4980533;28;20210;-70
2021/12/17 12:52:30;;;;;;;19.15;11.75;;;10.10;99.90;;;;;;4997516;28;20713;-69
2021/12/17 12:55:20;;;;;;;12.98;11.60;;;9.90;99.90;;;;;;4997747;28;20673;-69
2021/12/17 12:57:58;;;;;;;14.32;11.50;;;9.70;99.90;;;;;;4998412;28;20183;-70
2021/12/17 13:00:28;;;;;;;12.88;10.82;;;9.70;99.90;;;;;;4998386;28;20198;-70
2021/12/17 13:03:05;;;;;;;13.75;11.57;;;9.90;99.90;;;;;;4998016;28;20237;-70
2021/12/17 13:05:35;;;;;;;14.77;12.43;;;10.00;99.90;;;;;;4997245;28;20206;-70
2021/12/17 13:08:05;;;;;;;20.77;15.25;;;9.80;99.90;;;;;;4997175;28;20202;-70
2021/12/17 13:10:35;;;;;;;13.48;12.07;;;9.60;99.90;;;;;;4997394;28;20211;-70
2021/12/17 13:13:07;;;;;;;13.07;11.73;;;9.50;99.90;;;;;;4997344;28;20647;-70
2021/12/17 13:26:43;;;;;;;18.42;13.38;;;9.30;99.90;;;;;;4997865;28;20183;-70
2021/12/17 13:29:13;;;;;;;18.27;12.65;;;9.30;99.90;;;;;;4997380;28;20186;-70
2021/12/17 13:31:44;;;;;;;13.40;11.55;;;9.20;99.90;;;;;;4995875;28;20678;-69
2021/12/17 13:34:28;;;;;;;14.63;13.07;;;9.20;99.90;;;;;;4997745;28;20199;-70
2021/12/17 13:37:06;;;;;;;13.07;10.65;;;9.10;99.90;;;;;;4997022;28;20213;-70
2021/12/17 13:39:50;;;;;;;13.60;11.77;;;9.10;99.90;;;;;;4996901;28;20214;-70
2021/12/17 13:42:19;;;;;;;15.52;12.90;;;9.10;99.90;;;;;;4996460;28;20214;-71
2021/12/17 13:44:50;;;;;;;13.20;11.82;;;9.10;99.90;;;;;;4997216;28;20658;-70
2021/12/17 13:47:26;;;;;;;12.95;11.25;;;9.00;99.90;;;;;;4996740;28;20182;-70
2021/12/17 13:50:00;;;;;;;14.52;11.63;;;8.90;99.90;;;;;;4997481;28;20204;-70
2021/12/17 13:52:32;;;;;;;13.85;12.35;;;8.90;99.90;;;;;;4996779;28;20230;-70
2021/12/17 13:55:04;;;;;;;14.48;12.38;;;8.90;99.90;;;;;;4995871;28;20190;-69
2021/12/17 13:57:31;;;;;;;18.85;12.63;;;8.80;99.90;;;;;;4996864;28;20183;-69
2021/12/17 14:00:20;;;;;;;16.42;13.98;;;8.80;99.90;;;;;;4996208;28;20225;-70
2021/12/17 14:02:48;;;;;;;13.40;12.02;;;8.80;99.90;;;;;;4996419;28;20183;-70
2021/12/17 14:05:25;;;;;;;15.68;12.38;;;8.80;99.90;;;;;;4995825;28;20198;-71
2021/12/17 14:07:55;;;;;;;18.55;13.10;;;8.80;99.90;;;;;;4996594;28;20567;-70
2021/12/17 14:10:31;;;;;;;13.43;11.95;;;8.80;99.90;;;;;;4996390;28;20644;-70
2021/12/17 14:12:59;;;;;;;13.75;11.63;;;8.90;99.90;;;;;;4995380;28;20233;-70
2021/12/17 14:15:27;;;;;;;14.55;10.98;;;8.90;99.90;;;;;;4996601;28;20210;-70
2021/12/17 14:17:56;;;;;;;15.63;12.57;;;8.90;99.90;;;;;;4996778;28;20197;-69
2021/12/17 14:20:25;;;;;;;14.07;11.15;;;8.80;99.90;;;;;;4996134;28;20226;-70
2021/12/17 14:22:59;;;;;;;11.73;9.85;;;8.70;99.90;;;;;;4979230;28;20195;-70
2021/12/17 14:25:34;;;;;;;14.70;11.68;;;8.60;99.90;;;;;;4995800;28;20206;-70
2021/12/17 14:28:09;;;;;;;16.17;10.95;;;8.70;99.90;;;;;;4995131;28;20202;-70
2021/12/17 14:30:37;;;;;;;15.07;11.48;;;8.60;99.90;;;;;;4995441;28;20221;-70
2021/12/17 14:33:10;;;;;;;15.70;11.85;;;8.60;99.90;;;;;;4995706;28;20229;-70
2021/12/17 14:35:39;;;;;;;12.93;11.45;;;8.50;99.90;;;;;;4995898;28;20216;-70
2021/12/17 14:38:05;;;;;;;16.02;10.75;;;8.50;99.90;;;;;;4996268;28;20199;-70
2021/12/17 14:40:57;;;;;;;17.23;12.25;;;8.50;99.90;;;;;;4996107;28;20199;-69
2021/12/17 14:43:29;;;;;;;13.95;11.00;;;8.30;99.90;;;;;;4995159;28;20215;-69
2021/12/17 14:46:18;;;;;;;11.70;10.20;;;8.30;99.90;;;;;;4995153;28;20210;-70
2021/12/17 14:49:16;;;;;;;14.70;10.85;;;8.30;99.90;;;;;;4994929;28;20211;-68
2021/12/17 14:58:29;;;;;;;17.63;10.07;;;8.20;99.90;;;;;;4995805;28;20194;-69
2021/12/17 15:00:26;;;;;;;12.05;10.13;;;8.20;99.90;;;;;;4995250;28;20202;-71
2021/12/17 15:05:38;;;;;;;13.00;10.57;;;8.00;99.90;;;;;;4995839;28;20191;-70
2021/12/17 15:08:04;;;;;;;11.70;9.63;;;8.00;99.90;;;;;;4995075;28;20245;-70
2021/12/17 15:10:31;;;;;;;13.60;9.65;;;8.00;99.90;;;;;;4995451;28;20210;-68
2021/12/17 15:13:00;;;;;;;14.45;9.48;;;8.00;99.90;;;;;;4994335;28;20218;-69
2021/12/17 15:15:30;;;;;;;11.43;10.00;;;8.00;99.90;;;;;;4995258;28;20202;-70
2021/12/17 15:17:57;;;;;;;10.00;8.40;;;8.00;99.90;;;;;;4994892;28;20207;-70
2021/12/17 15:20:27;;;;;;;11.05;9.23;;;8.00;99.90;;;;;;4995299;28;20242;-69
2021/12/17 15:22:54;;;;;;;10.20;8.68;;;8.00;99.90;;;;;;4995379;28;20213;-69
2021/12/17 15:25:21;;;;;;;13.40;9.88;;;7.90;99.90;;;;;;4995597;28;20249;-69
2021/12/17 15:27:50;;;;;;;12.20;9.80;;;7.80;99.90;;;;;;4995201;28;20203;-69
2021/12/17 15:30:20;;;;;;;17.25;9.73;;;7.80;99.90;;;;;;4995555;28;20213;-69
2021/12/17 15:32:47;;;;;;;12.88;9.77;;;7.80;99.90;;;;;;4995436;28;20222;-69
2021/12/17 15:35:17;;;;;;;13.23;10.65;;;7.80;99.90;;;;;;4996249;28;20232;-69
2021/12/17 15:37:44;;;;;;;12.90;9.65;;;7.80;99.90;;;;;;4995622;28;20551;-69
2021/12/17 15:40:12;;;;;;;11.27;9.15;;;7.70;99.90;;;;;;4995742;28;20636;-70
2021/12/17 15:42:39;;;;;;;13.30;9.20;;;7.70;99.90;;;;;;4995965;28;20202;-70
2021/12/17 15:45:07;;;;;;;13.05;9.55;;;7.70;99.90;;;;;;4979521;28;20843;-71
2021/12/17 15:47:34;;;;;;;14.18;9.90;;;7.60;99.90;;;;;;4994447;28;20618;-70
2021/12/17 15:50:02;;;;;;;11.23;10.00;;;7.60;99.90;;;;;;4996366;28;20249;-70
2021/12/17 15:52:29;;;;;;;14.95;11.73;;;7.70;99.90;;;;;;4995954;28;20225;-71
2021/12/17 15:54:55;;;;;;;14.40;11.32;;;7.70;99.90;;;;;;4995808;28;20203;-71
2021/12/17 15:57:22;;;;;;;16.08;13.50;;;7.60;99.90;;;;;;4995992;28;20721;-70
2021/12/17 15:59:49;;;;;;;17.13;12.18;;;7.60;99.90;;;;;;4995507;28;20609;-70
2021/12/17 16:02:16;;;;;;;17.70;12.52;;;7.50;99.90;;;;;;4995703;28;20264;-70